Time;durP1;ratioP1;P1;durP2;ratioP2;P2;SDS_P1;SDS_P2;PMS_P1;PMS_P2;Temp;Humidity;BMP_temperature;BMP_pressure;BME280_temperature;BME280_humidity;BME280_pressure;Samples;Min_cycle;Max_cycle;Signal;HPM_P1;HPM_P2
2022/09/12 00:02:43;;;;;;;5.65;4.13;;;12.80;99.90;;;;;;6261308;28;20272;-68
2022/09/12 00:05:49;;;;;;;5.93;4.47;;;12.80;99.90;;;;;;6260516;28;20555;-68
2022/09/12 00:08:57;;;;;;;4.68;4.10;;;12.70;99.90;;;;;;6260533;28;20590;-68
2022/09/12 00:12:03;;;;;;;7.50;4.82;;;12.70;99.90;;;;;;6261644;28;20287;-68
2022/09/12 00:15:11;;;;;;;4.72;4.28;;;12.60;99.90;;;;;;6264904;28;20479;-68
2022/09/12 00:18:17;;;;;;;4.90;4.40;;;12.60;99.90;;;;;;6265009;28;20586;-68
2022/09/12 00:21:24;;;;;;;4.72;4.40;;;12.60;99.90;;;;;;6264983;28;20275;-68
2022/09/12 00:24:30;;;;;;;5.18;4.70;;;12.60;99.90;;;;;;6264851;28;20295;-67
2022/09/12 00:27:35;;;;;;;4.80;4.40;;;12.60;99.90;;;;;;6264871;28;20582;-68
2022/09/12 00:30:42;;;;;;;3.90;3.80;;;12.60;99.90;;;;;;6264995;28;20299;-68
2022/09/12 00:33:47;;;;;;;4.45;4.20;;;12.60;99.90;;;;;;6264898;28;20595;-68
2022/09/12 00:36:54;;;;;;;4.65;4.35;;;12.60;99.90;;;;;;6264842;28;20272;-68
2022/09/12 00:39:59;;;;;;;6.05;4.93;;;12.60;99.90;;;;;;6264745;28;20299;-68
2022/09/12 00:43:05;;;;;;;4.40;4.00;;;12.50;99.90;;;;;;6264284;28;20571;-68
2022/09/12 00:46:28;;;;;;;4.85;4.32;;;12.50;99.90;;;;;;6264442;28;20583;-68
2022/09/12 00:49:35;;;;;;;5.82;4.68;;;12.50;99.90;;;;;;6264115;28;20583;-68
2022/09/12 00:52:46;;;;;;;4.32;4.03;;;12.50;99.90;;;;;;6264868;28;20476;-68
2022/09/12 00:55:52;;;;;;;14.05;4.90;;;12.50;99.90;;;;;;6263545;28;20288;-68
2022/09/12 00:59:02;;;;;;;4.85;4.53;;;12.50;99.90;;;;;;6264114;28;20299;-68
2022/09/12 01:02:08;;;;;;;5.00;4.70;;;12.30;99.90;;;;;;6264384;28;20271;-68
2022/09/12 01:05:14;;;;;;;5.03;4.68;;;12.40;99.90;;;;;;6263566;28;20292;-68
2022/09/12 01:08:21;;;;;;;6.57;4.85;;;12.30;99.90;;;;;;6263779;28;20296;-67
2022/09/12 01:11:27;;;;;;;5.40;4.90;;;12.30;99.90;;;;;;6264145;28;20547;-68
2022/09/12 01:14:33;;;;;;;4.72;4.40;;;12.40;99.90;;;;;;6263565;28;20303;-68
2022/09/12 01:17:52;;;;;;;8.05;4.72;;;12.30;99.90;;;;;;6263682;28;20466;-67
2022/09/12 01:21:16;;;;;;;4.60;4.20;;;12.30;99.90;;;;;;6263268;28;20268;-67
2022/09/12 01:24:56;;;;;;;7.90;4.53;;;12.20;99.90;;;;;;6262065;28;20300;-67
2022/09/12 01:28:22;;;;;;;5.18;4.28;;;12.30;99.90;;;;;;6263128;28;20303;-67
2022/09/12 01:31:34;;;;;;;6.15;4.47;;;12.20;99.90;;;;;;6263291;28;20455;-67
2022/09/12 01:34:46;;;;;;;4.70;4.35;;;12.10;99.90;;;;;;6263089;28;20303;-67
2022/09/12 01:38:03;;;;;;;5.57;4.82;;;12.10;99.90;;;;;;6262656;28;20271;-67
2022/09/12 01:41:15;;;;;;;7.63;5.03;;;12.10;99.90;;;;;;6263383;28;20272;-67
2022/09/12 01:44:33;;;;;;;6.10;4.45;;;12.10;99.90;;;;;;6262911;28;20295;-68
2022/09/12 01:47:44;;;;;;;4.72;4.18;;;12.00;99.90;;;;;;6263402;28;20268;-68
2022/09/12 01:50:53;;;;;;;4.65;4.35;;;12.00;99.90;;;;;;6261661;28;20271;-68
2022/09/12 01:54:05;;;;;;;6.57;4.30;;;12.00;99.90;;;;;;6262521;28;20483;-68
2022/09/12 01:57:16;;;;;;;4.60;4.28;;;11.90;99.90;;;;;;6263265;28;20308;-68
2022/09/12 02:00:22;;;;;;;4.35;3.95;;;12.00;99.90;;;;;;6262494;28;20579;-68
2022/09/12 02:03:33;;;;;;;4.25;3.85;;;11.90;99.90;;;;;;6262498;28;20291;-68
2022/09/12 02:06:46;;;;;;;6.03;4.82;;;11.90;99.90;;;;;;6262559;28;20267;-68
2022/09/12 02:09:57;;;;;;;5.22;4.47;;;11.80;99.90;;;;;;6262176;28;20304;-68
2022/09/12 02:13:07;;;;;;;4.18;3.95;;;11.80;99.90;;;;;;6262328;28;20372;-68
2022/09/12 02:16:18;;;;;;;6.88;4.20;;;11.80;99.90;;;;;;6262474;28;20276;-68
2022/09/12 02:19:30;;;;;;;5.22;4.22;;;11.90;99.90;;;;;;6262177;28;20484;-68
2022/09/12 02:22:37;;;;;;;5.13;4.03;;;11.80;99.90;;;;;;6262186;28;20272;-68
2022/09/12 02:25:46;;;;;;;4.38;4.07;;;11.80;99.90;;;;;;6261898;28;20295;-68
2022/09/12 02:28:51;;;;;;;4.57;4.25;;;11.80;99.90;;;;;;6275971;28;20300;-68
2022/09/12 02:32:00;;;;;;;4.68;4.30;;;11.70;99.90;;;;;;6286720;28;20271;-68
2022/09/12 02:35:13;;;;;;;4.80;4.38;;;11.70;99.90;;;;;;6285662;28;20299;-68
2022/09/12 02:38:26;;;;;;;6.13;4.55;;;11.70;99.90;;;;;;6286198;28;20306;-68
2022/09/12 02:41:31;;;;;;;6.53;4.53;;;11.80;99.90;;;;;;6286316;28;20554;-68
2022/09/12 02:44:38;;;;;;;4.55;4.10;;;11.70;99.90;;;;;;6286089;28;20299;-68
2022/09/12 02:47:48;;;;;;;4.30;4.05;;;11.70;99.90;;;;;;6286121;28;20271;-68
2022/09/12 02:50:55;;;;;;;4.68;4.47;;;11.70;99.90;;;;;;6286123;28;20275;-68
2022/09/12 02:54:01;;;;;;;4.53;4.13;;;11.70;99.90;;;;;;6285785;28;20306;-68
2022/09/12 02:57:15;;;;;;;7.35;4.35;;;11.70;99.90;;;;;;6285904;28;20458;-68
2022/09/12 03:00:28;;;;;;;5.68;4.03;;;11.70;99.90;;;;;;6285926;28;20294;-68
2022/09/12 03:03:52;;;;;;;4.57;4.18;;;11.70;99.90;;;;;;6282187;28;20503;-68
2022/09/12 03:07:09;;;;;;;5.10;4.70;;;11.60;99.90;;;;;;6280693;28;20275;-68
2022/09/12 03:10:23;;;;;;;5.95;4.28;;;11.60;99.90;;;;;;6285369;28;20307;-69
2022/09/12 03:13:36;;;;;;;4.55;4.15;;;11.50;99.90;;;;;;6285172;28;20263;-68
2022/09/12 03:16:51;;;;;;;6.43;4.10;;;11.50;99.90;;;;;;6285550;28;20299;-69
2022/09/12 03:20:00;;;;;;;5.45;4.32;;;11.60;99.90;;;;;;6285600;28;20458;-67
2022/09/12 03:23:19;;;;;;;5.53;4.75;;;11.50;99.90;;;;;;6285838;28;20276;-69
2022/09/12 03:26:30;;;;;;;4.90;4.28;;;11.60;99.90;;;;;;6284883;28;20286;-66
2022/09/12 03:29:37;;;;;;;8.70;4.30;;;11.60;99.90;;;;;;6285224;28;20483;-67
2022/09/12 03:32:47;;;;;;;4.63;3.92;;;11.50;99.90;;;;;;6285843;28;20271;-67
2022/09/12 03:35:54;;;;;;;11.80;4.50;;;11.60;99.90;;;;;;6285167;28;20347;-67
2022/09/12 03:39:01;;;;;;;5.22;4.63;;;11.50;99.90;;;;;;6285473;28;20295;-68
2022/09/12 03:42:07;;;;;;;5.97;3.88;;;11.50;99.90;;;;;;6285341;28;20463;-68
2022/09/12 03:45:12;;;;;;;10.32;4.30;;;11.40;99.90;;;;;;6284814;28;20299;-68
2022/09/12 03:48:18;;;;;;;4.45;3.78;;;11.40;99.90;;;;;;6288113;28;20270;-68
2022/09/12 03:51:23;;;;;;;6.47;3.85;;;11.40;99.90;;;;;;6290648;28;20271;-68
2022/09/12 03:54:30;;;;;;;6.47;4.00;;;11.40;99.90;;;;;;6289989;28;20303;-68
2022/09/12 03:57:35;;;;;;;8.88;4.10;;;11.40;99.90;;;;;;6290206;28;20275;-68
2022/09/12 04:00:41;;;;;;;10.15;4.38;;;11.30;99.90;;;;;;6289669;28;20315;-68
2022/09/12 04:03:49;;;;;;;4.43;3.72;;;11.30;99.90;;;;;;6288945;28;20291;-68
2022/09/12 04:06:55;;;;;;;8.32;4.30;;;11.30;99.90;;;;;;6290410;28;20271;-68
2022/09/12 04:10:02;;;;;;;5.88;4.07;;;11.30;99.90;;;;;;6289392;28;20319;-68
2022/09/12 04:13:09;;;;;;;12.95;4.90;;;11.30;99.90;;;;;;6289822;28;20264;-68
2022/09/12 04:16:16;;;;;;;12.35;4.28;;;11.30;99.90;;;;;;6289388;28;20306;-68
2022/09/12 04:19:22;;;;;;;7.72;4.15;;;11.30;99.90;;;;;;6289154;28;20291;-68
2022/09/12 04:22:28;;;;;;;6.15;3.90;;;11.30;99.90;;;;;;6289906;28;20276;-68
2022/09/12 04:25:36;;;;;;;7.15;4.28;;;11.30;99.90;;;;;;6288745;28;20479;-68
2022/09/12 04:28:45;;;;;;;12.70;4.35;;;11.20;99.90;;;;;;6270997;28;20295;-67
2022/09/12 04:31:51;;;;;;;13.10;4.80;;;11.30;99.90;;;;;;6289035;28;20276;-68
2022/09/12 04:34:57;;;;;;;14.65;5.78;;;11.30;99.90;;;;;;6288831;28;20307;-67
2022/09/12 04:38:02;;;;;;;13.45;5.20;;;11.30;99.90;;;;;;6288935;28;20274;-67
2022/09/12 04:41:14;;;;;;;8.63;4.80;;;11.30;99.90;;;;;;6288613;28;20299;-68
2022/09/12 04:44:19;;;;;;;11.30;4.97;;;11.30;99.90;;;;;;6295203;28;20298;-69
2022/09/12 04:47:25;;;;;;;28.63;6.10;;;11.30;99.90;;;;;;6313748;28;20270;-68
2022/09/12 04:50:30;;;;;;;17.48;5.60;;;11.20;99.90;;;;;;6313043;28;20294;-67
2022/09/12 04:53:36;;;;;;;14.52;5.45;;;11.20;99.90;;;;;;6313108;28;20270;-69
2022/09/12 04:56:46;;;;;;;14.95;5.00;;;11.30;99.90;;;;;;6313743;28;20294;-68
2022/09/12 04:59:51;;;;;;;12.00;4.95;;;11.30;99.90;;;;;;6313118;28;20299;-68
2022/09/12 05:02:57;;;;;;;6.43;4.80;;;11.30;99.90;;;;;;6313543;28;20270;-67
2022/09/12 05:06:03;;;;;;;19.05;4.90;;;11.40;99.90;;;;;;6313202;28;20303;-68
2022/09/12 05:09:12;;;;;;;8.43;4.00;;;11.30;99.90;;;;;;6312969;28;20373;-68
2022/09/12 05:12:19;;;;;;;7.40;4.43;;;11.30;99.90;;;;;;6312994;28;20267;-68
2022/09/12 05:15:25;;;;;;;7.53;4.35;;;11.30;99.90;;;;;;6312690;28;20298;-68
2022/09/12 05:18:32;;;;;;;7.07;4.32;;;11.40;99.90;;;;;;6313227;28;20274;-69
2022/09/12 05:21:38;;;;;;;6.47;4.57;;;11.40;99.90;;;;;;6312332;28;20380;-69
2022/09/12 05:24:43;;;;;;;13.55;5.00;;;11.40;99.90;;;;;;6312548;28;20306;-68
2022/09/12 05:27:56;;;;;;;8.48;4.43;;;11.40;99.90;;;;;;6312822;28;20302;-68
2022/09/12 05:31:02;;;;;;;4.25;3.90;;;11.50;99.90;;;;;;6312552;28;20324;-68
2022/09/12 05:34:10;;;;;;;4.47;4.28;;;11.50;99.90;;;;;;6311958;28;20314;-68
2022/09/12 05:37:16;;;;;;;5.35;4.40;;;11.50;99.90;;;;;;6312416;28;20468;-67
2022/09/12 05:40:21;;;;;;;7.07;4.20;;;11.60;99.90;;;;;;6311909;28;20302;-67
2022/09/12 05:43:28;;;;;;;3.85;3.65;;;11.60;99.90;;;;;;6312161;28;20274;-67
2022/09/12 05:46:39;;;;;;;7.75;4.20;;;11.70;99.90;;;;;;6310908;28;20468;-68
2022/09/12 05:49:46;;;;;;;5.25;4.40;;;11.70;99.90;;;;;;6311616;28;20294;-68
2022/09/12 05:52:53;;;;;;;8.25;4.63;;;11.70;99.90;;;;;;6311962;28;20567;-68
2022/09/12 05:56:09;;;;;;;4.50;4.25;;;11.70;99.90;;;;;;6311736;28;20294;-68
2022/09/12 05:59:19;;;;;;;7.82;4.28;;;11.80;99.90;;;;;;6311593;28;20306;-68
2022/09/12 06:02:24;;;;;;;9.65;4.40;;;11.80;99.90;;;;;;6311934;28;20267;-68
2022/09/12 06:05:30;;;;;;;5.80;4.43;;;11.90;99.90;;;;;;6311259;28;20294;-68
2022/09/12 06:08:36;;;;;;;7.07;4.18;;;11.90;99.90;;;;;;6311144;28;20275;-68
2022/09/12 06:11:42;;;;;;;6.82;4.47;;;12.00;99.90;;;;;;6310880;28;20259;-68
2022/09/12 06:14:49;;;;;;;4.38;4.05;;;12.00;99.90;;;;;;6309548;28;20477;-68
2022/09/12 06:17:54;;;;;;;6.40;4.00;;;12.10;99.90;;;;;;6311278;28;20286;-68
2022/09/12 06:21:03;;;;;;;4.53;4.13;;;12.10;99.90;;;;;;6310747;28;20294;-68
2022/09/12 06:24:09;;;;;;;5.13;4.43;;;12.20;99.90;;;;;;6310422;28;20305;-68
2022/09/12 06:27:15;;;;;;;4.63;4.20;;;12.20;99.90;;;;;;6309517;28;20270;-68
2022/09/12 06:30:22;;;;;;;4.18;3.97;;;12.30;99.90;;;;;;6310423;28;20294;-68
2022/09/12 06:33:31;;;;;;;4.78;4.18;;;12.40;99.90;;;;;;6311231;28;20274;-68
2022/09/12 06:36:39;;;;;;;4.05;3.92;;;12.40;99.90;;;;;;6302242;28;20290;-69
2022/09/12 06:39:44;;;;;;;10.95;4.70;;;12.50;99.90;;;;;;6310575;28;20298;-69
2022/09/12 06:42:51;;;;;;;4.85;4.50;;;12.70;99.90;;;;;;6311163;28;20270;-68
2022/09/12 06:46:12;;;;;;;6.63;3.97;;;12.70;99.90;;;;;;6309315;28;20307;-69
2022/09/12 06:49:18;;;;;;;4.63;4.22;;;12.90;99.90;;;;;;6310580;28;20298;-68
2022/09/12 06:52:23;;;;;;;9.73;5.05;;;13.00;99.90;;;;;;6311089;28;20275;-69
2022/09/12 06:55:29;;;;;;;7.43;4.47;;;13.10;99.90;;;;;;6310705;28;20588;-68
2022/09/12 06:58:35;;;;;;;7.57;4.50;;;13.30;99.90;;;;;;6309626;28;20634;-68
2022/09/12 07:01:42;;;;;;;4.38;4.10;;;13.30;99.90;;;;;;6285558;28;20566;-68
2022/09/12 07:04:48;;;;;;;7.45;4.35;;;13.50;99.90;;;;;;6285816;28;20296;-68
2022/09/12 07:07:54;;;;;;;5.05;4.60;;;13.60;99.90;;;;;;6285939;28;20275;-68
2022/09/12 07:11:01;;;;;;;6.07;4.50;;;13.60;99.90;;;;;;6284789;28;20299;-68
2022/09/12 07:14:08;;;;;;;4.45;3.67;;;13.80;99.90;;;;;;6305957;28;20484;-68
2022/09/12 07:17:15;;;;;;;5.28;3.92;;;13.90;99.90;;;;;;6310443;28;20290;-68
2022/09/12 07:20:21;;;;;;;4.28;3.25;;;13.90;99.90;;;;;;6310185;28;20496;-68
2022/09/12 07:23:27;;;;;;;8.05;3.25;;;14.00;99.90;;;;;;6313879;28;20270;-69
2022/09/12 07:26:32;;;;;;;4.10;2.42;;;14.20;99.90;;;;;;6314626;28;20453;-68
2022/09/12 07:29:38;;;;;;;2.38;2.28;;;14.30;99.90;;;;;;6315116;28;20593;-68
2022/09/12 07:32:45;;;;;;;2.30;2.20;;;14.50;99.90;;;;;;6315681;28;20274;-68
2022/09/12 07:35:53;;;;;;;2.60;2.40;;;14.60;99.90;;;;;;6314984;28;20298;-68
2022/09/12 07:38:59;;;;;;;2.58;2.15;;;14.80;99.90;;;;;;6315182;28;20298;-68
2022/09/12 07:42:05;;;;;;;2.55;2.20;;;14.90;99.90;;;;;;6315233;28;20565;-68
2022/09/12 07:45:14;;;;;;;2.45;2.25;;;15.00;99.90;;;;;;6314662;28;20294;-68
2022/09/12 07:48:21;;;;;;;4.93;2.45;;;15.10;99.90;;;;;;6314978;28;20274;-68
2022/09/12 07:51:27;;;;;;;3.25;2.33;;;15.20;99.90;;;;;;6314857;28;20451;-68
2022/09/12 07:54:33;;;;;;;7.00;2.30;;;15.40;99.90;;;;;;6314543;28;20298;-68
2022/09/12 07:57:38;;;;;;;4.10;2.22;;;15.40;99.90;;;;;;6315091;28;20294;-67
2022/09/12 08:00:44;;;;;;;8.13;2.60;;;15.50;99.90;;;;;;6314558;28;20290;-68
2022/09/12 08:03:58;;;;;;;4.97;2.58;;;15.50;99.90;;;;;;6314416;28;20270;-67
2022/09/12 08:07:05;;;;;;;4.63;2.60;;;15.60;99.90;;;;;;6314965;28;20271;-68
2022/09/12 08:10:11;;;;;;;2.10;2.00;;;15.60;99.90;;;;;;6314149;28;20294;-68
2022/09/12 08:13:17;;;;;;;4.82;2.53;;;15.60;99.90;;;;;;6293587;28;20263;-68
2022/09/12 08:16:26;;;;;;;3.33;2.00;;;15.60;99.90;;;;;;6287542;28;20298;-68
2022/09/12 08:19:32;;;;;;;2.33;2.20;;;15.60;99.90;;;;;;6289147;28;20302;-68
2022/09/12 08:22:38;;;;;;;6.43;2.90;;;15.70;99.90;;;;;;6289303;28;20444;-68
2022/09/12 08:25:44;;;;;;;2.83;2.42;;;15.70;99.90;;;;;;6288989;28;20295;-68
2022/09/12 08:28:50;;;;;;;2.30;2.10;;;15.70;99.90;;;;;;6288679;28;20303;-68
2022/09/12 08:31:56;;;;;;;2.42;2.22;;;15.70;99.90;;;;;;6289371;28;20275;-68
2022/09/12 08:35:03;;;;;;;2.90;2.67;;;15.70;99.90;;;;;;6288591;28;20295;-68
2022/09/12 08:38:08;;;;;;;3.05;2.65;;;15.80;99.90;;;;;;6288617;28;20295;-68
2022/09/12 08:41:24;;;;;;;4.43;2.72;;;15.80;99.90;;;;;;6289099;28;20587;-67
2022/09/12 08:44:58;;;;;;;3.10;2.80;;;15.90;99.90;;;;;;6288484;28;20299;-67
2022/09/12 08:48:05;;;;;;;19.73;6.28;;;15.90;99.90;;;;;;6286406;28;20275;-67
2022/09/12 08:51:15;;;;;;;3.97;2.28;;;16.00;99.90;;;;;;6289023;28;20295;-67
2022/09/12 08:54:25;;;;;;;11.82;5.53;;;16.10;99.90;;;;;;6288515;28;20295;-68
2022/09/12 08:57:30;;;;;;;5.65;2.80;;;15.90;99.90;;;;;;6288398;28;20271;-68
2022/09/12 09:00:45;;;;;;;3.05;2.85;;;16.00;99.90;;;;;;6287971;28;20582;-67
2022/09/12 09:04:05;;;;;;;27.17;8.50;;;16.10;99.90;;;;;;6288173;28;20271;-67
2022/09/12 09:07:34;;;;;;;4.25;2.38;;;16.10;99.90;;;;;;6287956;28;20271;-68
2022/09/12 09:10:51;;;;;;;2.17;2.15;;;16.20;99.90;;;;;;6287618;28;20299;-68
2022/09/12 09:17:40;;;;;;;2.72;2.40;;;16.40;99.90;;;;;;6287469;28;20267;-67
2022/09/12 09:20:51;;;;;;;3.53;2.10;;;16.40;99.90;;;;;;6287463;28;20299;-68
2022/09/12 09:24:04;;;;;;;2.20;2.10;;;16.40;99.90;;;;;;6287686;28;20579;-68
2022/09/12 09:27:15;;;;;;;5.05;2.03;;;16.50;99.90;;;;;;6287481;28;20335;-68
2022/09/12 09:30:44;;;;;;;2.33;2.10;;;16.60;99.90;;;;;;6287267;28;20299;-68
2022/09/12 09:33:52;;;;;;;4.20;2.20;;;16.60;99.90;;;;;;6287063;28;20276;-68
2022/09/12 09:37:05;;;;;;;4.78;1.85;;;16.70;99.90;;;;;;6287953;28;20283;-68
2022/09/12 09:40:23;;;;;;;3.33;1.95;;;16.70;99.90;;;;;;6286954;28;20311;-68
2022/09/12 09:43:29;;;;;;;3.95;2.08;;;16.70;99.90;;;;;;6287522;28;20454;-69
2022/09/12 09:46:34;;;;;;;3.70;2.03;;;16.70;99.90;;;;;;6269820;28;20275;-68
2022/09/12 09:49:40;;;;;;;5.38;2.17;;;16.70;99.90;;;;;;6286494;28;20303;-67
2022/09/12 09:52:46;;;;;;;2.28;2.08;;;16.80;99.90;;;;;;6287376;28;20371;-69
2022/09/12 09:55:55;;;;;;;2.85;2.00;;;16.90;99.90;;;;;;6286435;28;20299;-67
2022/09/12 09:59:11;;;;;;;3.10;2.10;;;17.00;99.90;;;;;;6285952;28;20311;-67
2022/09/12 10:02:22;;;;;;;1.90;1.90;;;17.00;99.90;;;;;;6286848;28;20271;-67
2022/09/12 10:05:29;;;;;;;2.40;2.20;;;17.10;99.90;;;;;;6286353;28;20310;-67
2022/09/12 10:08:37;;;;;;;4.75;2.05;;;17.20;99.90;;;;;;6286252;28;20548;-68
2022/09/12 10:11:44;;;;;;;4.28;1.85;;;17.20;99.50;;;;;;6286911;28;20259;-68
2022/09/12 10:14:59;;;;;;;1.80;1.80;;;17.30;99.50;;;;;;6296590;28;20298;-67
2022/09/12 10:18:05;;;;;;;5.68;1.90;;;17.40;99.60;;;;;;6311807;28;20350;-68
2022/09/12 10:21:23;;;;;;;2.10;2.00;;;17.40;99.20;;;;;;6288814;28;20303;-68
2022/09/12 10:24:34;;;;;;;2.35;2.00;;;17.50;99.20;;;;;;6285734;28;20299;-68
2022/09/12 10:27:42;;;;;;;1.90;1.90;;;17.50;98.90;;;;;;6286363;28;20303;-68
2022/09/12 10:30:52;;;;;;;1.83;1.83;;;17.50;98.90;;;;;;6285855;28;20484;-68
2022/09/12 10:34:00;;;;;;;1.77;1.67;;;17.60;98.30;;;;;;6285520;28;20387;-67
2022/09/12 10:37:10;;;;;;;2.40;1.83;;;17.60;98.50;;;;;;6286439;28;20223;-67
2022/09/12 10:40:24;;;;;;;3.17;1.75;;;17.70;98.40;;;;;;6285783;28;20304;-67
2022/09/12 10:43:36;;;;;;;4.00;2.00;;;17.70;98.50;;;;;;6285935;28;20275;-67
2022/09/12 10:46:42;;;;;;;1.90;1.63;;;17.90;97.60;;;;;;6285395;28;20274;-68
2022/09/12 10:49:49;;;;;;;2.92;1.75;;;17.90;96.20;;;;;;6285679;28;20477;-67
2022/09/12 10:52:56;;;;;;;2.90;1.77;;;18.00;97.60;;;;;;6285668;28;20275;-68
2022/09/12 10:56:09;;;;;;;3.28;1.90;;;18.00;96.90;;;;;;6284935;28;20586;-67
2022/09/12 10:59:27;;;;;;;2.95;2.10;;;18.00;98.10;;;;;;6284649;28;20295;-67
2022/09/12 11:02:49;;;;;;;3.40;1.80;;;18.00;97.50;;;;;;6286021;28;20267;-68
2022/09/12 11:05:58;;;;;;;2.67;2.17;;;17.90;97.20;;;;;;6285323;28;20388;-68
2022/09/12 11:09:10;;;;;;;2.75;1.80;;;17.90;97.20;;;;;;6285304;28;20291;-68
2022/09/12 11:12:24;;;;;;;2.80;1.90;;;18.00;97.20;;;;;;6268139;28;20267;-68
2022/09/12 11:15:52;;;;;;;1.90;1.80;;;18.00;96.70;;;;;;6285407;28;20299;-67
2022/09/12 11:19:29;;;;;;;2.13;1.90;;;18.10;96.90;;;;;;6285241;28;20294;-67
2022/09/12 11:22:56;;;;;;;3.60;1.98;;;18.10;97.00;;;;;;6285869;28;20271;-68
2022/09/12 11:26:11;;;;;;;2.17;2.08;;;18.10;97.00;;;;;;6284666;28;20294;-68
2022/09/12 11:29:28;;;;;;;3.20;1.73;;;18.10;97.40;;;;;;6284385;28;20299;-68
2022/09/12 11:33:13;;;;;;;2.20;1.98;;;18.20;97.20;;;;;;6285277;28;20271;-69
2022/09/12 11:36:31;;;;;;;2.75;2.13;;;18.10;97.70;;;;;;6281753;28;20295;-68
2022/09/12 11:39:40;;;;;;;1.67;1.67;;;18.10;97.50;;;;;;6284473;28;20294;-68
2022/09/12 11:42:47;;;;;;;4.60;2.10;;;18.20;96.80;;;;;;6285096;28;20294;-67
2022/09/12 11:45:53;;;;;;;2.15;1.90;;;18.20;96.30;;;;;;6284959;28;20299;-67
2022/09/12 11:49:06;;;;;;;3.42;1.85;;;18.30;96.00;;;;;;6284960;28;20299;-67
2022/09/12 11:52:16;;;;;;;6.55;2.00;;;18.30;96.50;;;;;;6285300;28;20275;-67
2022/09/12 11:55:26;;;;;;;3.63;1.75;;;18.30;95.70;;;;;;6284442;28;20300;-67
2022/09/12 11:58:32;;;;;;;6.05;1.90;;;18.30;95.50;;;;;;6285197;28;20267;-68
2022/09/12 12:01:41;;;;;;;3.40;2.13;;;18.30;96.00;;;;;;6309264;28;20298;-68
2022/09/12 12:05:08;;;;;;;7.30;2.22;;;18.30;96.00;;;;;;6297963;28;20291;-69
2022/09/12 12:08:14;;;;;;;3.10;2.03;;;18.30;96.10;;;;;;6285025;28;20448;-69
2022/09/12 12:11:30;;;;;;;1.90;1.80;;;18.40;96.50;;;;;;6289253;28;20294;-68
2022/09/12 12:14:42;;;;;;;5.32;1.80;;;18.40;95.70;;;;;;6289026;28;20295;-68
2022/09/12 12:18:02;;;;;;;3.47;1.98;;;18.40;97.30;;;;;;6289284;28;20546;-68
2022/09/12 12:21:39;;;;;;;1.80;1.80;;;18.50;96.20;;;;;;6288981;28;20298;-67
2022/09/12 12:25:03;;;;;;;3.60;2.13;;;18.50;95.60;;;;;;6289039;28;20300;-67
2022/09/12 12:28:11;;;;;;;3.10;1.98;;;18.60;95.10;;;;;;6297394;28;20299;-68
2022/09/12 12:31:17;;;;;;;5.43;2.63;;;18.60;95.40;;;;;;6291154;28;20299;-68
2022/09/12 12:34:29;;;;;;;2.28;2.05;;;18.60;95.70;;;;;;6288699;28;20294;-68
2022/09/12 12:37:58;;;;;;;6.65;1.90;;;18.60;96.70;;;;;;6289520;28;20547;-68
2022/09/12 12:41:42;;;;;;;4.38;1.92;;;18.60;97.60;;;;;;6288715;28;20322;-68
2022/09/12 12:44:50;;;;;;;10.68;1.98;;;18.60;98.10;;;;;;6285355;28;20310;-68
2022/09/12 12:47:58;;;;;;;4.15;2.10;;;18.70;98.20;;;;;;6288636;28;20275;-68
2022/09/12 12:51:48;;;;;;;1.70;1.70;;;18.60;98.50;;;;;;6288107;28;20295;-68
2022/09/12 12:54:57;;;;;;;1.83;1.83;;;18.60;98.90;;;;;;6288250;28;20480;-68
2022/09/12 12:58:04;;;;;;;3.15;1.95;;;18.70;99.20;;;;;;6289062;28;20267;-69
2022/09/12 13:01:13;;;;;;;5.57;2.13;;;18.70;98.20;;;;;;6287884;28;20298;-68
2022/09/12 13:04:21;;;;;;;1.88;1.88;;;18.70;98.20;;;;;;6288019;28;20626;-68
2022/09/12 13:07:34;;;;;;;2.38;2.00;;;18.70;97.50;;;;;;6288250;28;20571;-68
2022/09/12 13:10:49;;;;;;;2.47;2.28;;;18.80;96.40;;;;;;6287977;28;20295;-68
2022/09/12 13:14:00;;;;;;;4.07;2.05;;;18.80;96.00;;;;;;6257486;28;20299;-68
2022/09/12 13:17:07;;;;;;;4.68;2.10;;;18.80;95.70;;;;;;6263831;28;20452;-68
2022/09/12 13:20:21;;;;;;;5.65;2.05;;;18.80;97.10;;;;;;6261993;28;20583;-69
2022/09/12 13:23:35;;;;;;;3.90;2.20;;;18.70;96.70;;;;;;6263077;28;20293;-69
2022/09/12 13:26:45;;;;;;;4.10;1.90;;;18.60;97.10;;;;;;6263439;28;20272;-67
2022/09/12 13:29:57;;;;;;;2.45;2.10;;;18.80;97.20;;;;;;6252069;28;20305;-69
2022/09/12 13:33:18;;;;;;;3.20;2.05;;;18.80;97.50;;;;;;6237675;28;20276;-67
2022/09/12 13:36:57;;;;;;;4.15;1.95;;;18.90;97.80;;;;;;6261051;28;20385;-67
2022/09/12 13:40:23;;;;;;;5.40;2.00;;;18.80;97.50;;;;;;6262019;28;20296;-67
2022/09/12 13:43:39;;;;;;;8.48;2.28;;;18.80;97.70;;;;;;6262336;28;20292;-67
2022/09/12 13:46:45;;;;;;;5.28;1.77;;;18.80;97.80;;;;;;6261654;28;20280;-67
2022/09/12 13:49:50;;;;;;;2.97;1.90;;;18.80;97.70;;;;;;6262249;28;20596;-68
2022/09/12 13:52:58;;;;;;;2.28;2.08;;;18.80;97.90;;;;;;6262659;28;20279;-69
2022/09/12 13:56:04;;;;;;;1.95;1.90;;;18.80;97.70;;;;;;6262125;28;20299;-67
2022/09/12 13:59:12;;;;;;;4.03;2.35;;;18.70;98.10;;;;;;6261877;28;20295;-67
2022/09/12 14:02:20;;;;;;;8.07;2.00;;;18.80;98.50;;;;;;6262584;28;20315;-67
2022/09/12 14:05:26;;;;;;;2.42;2.22;;;18.90;98.50;;;;;;6261519;28;20296;-67
2022/09/12 14:08:32;;;;;;;4.85;2.05;;;18.80;98.60;;;;;;6262213;28;20555;-67
2022/09/12 14:11:38;;;;;;;2.10;2.00;;;18.90;97.90;;;;;;6267804;28;20280;-68
2022/09/12 14:14:50;;;;;;;5.75;2.20;;;18.90;97.60;;;;;;6276900;28;20295;-68
2022/09/12 14:17:58;;;;;;;2.50;2.05;;;19.00;97.80;;;;;;6262391;28;20276;-68
2022/09/12 14:21:11;;;;;;;4.68;1.90;;;18.90;97.50;;;;;;6261741;28;20300;-67
2022/09/12 14:24:18;;;;;;;2.17;1.90;;;18.80;97.80;;;;;;6273423;28;20299;-67
2022/09/12 14:27:27;;;;;;;3.45;1.95;;;18.90;98.70;;;;;;6311324;28;20546;-68
2022/09/12 14:30:36;;;;;;;2.03;1.80;;;18.90;99.10;;;;;;6335236;28;20298;-68
2022/09/12 14:33:48;;;;;;;7.68;2.20;;;18.80;98.40;;;;;;6335670;28;20270;-67
2022/09/12 14:36:56;;;;;;;2.00;1.90;;;18.60;98.30;;;;;;6335802;28;20384;-68
2022/09/12 14:40:01;;;;;;;3.17;2.15;;;18.60;98.40;;;;;;6335543;28;20297;-69
2022/09/12 14:43:19;;;;;;;2.20;2.10;;;18.50;98.40;;;;;;6336318;28;20289;-68
2022/09/12 14:46:30;;;;;;;5.07;2.00;;;18.60;98.90;;;;;;6335620;28;20581;-68
2022/09/12 14:49:37;;;;;;;6.45;1.92;;;18.60;99.00;;;;;;6335653;28;20324;-68
2022/09/12 14:52:43;;;;;;;3.42;2.40;;;18.60;99.60;;;;;;6335367;28;20274;-67
2022/09/12 14:55:53;;;;;;;5.82;2.47;;;18.60;99.20;;;;;;6333681;28;20298;-67
2022/09/12 14:59:26;;;;;;;3.05;2.30;;;18.60;98.50;;;;;;6335440;28;20289;-68
2022/09/12 15:02:33;;;;;;;2.80;2.17;;;18.60;99.20;;;;;;6336290;28;20570;-68
2022/09/12 15:05:49;;;;;;;2.25;2.05;;;18.60;97.20;;;;;;6335078;28;20297;-68
2022/09/12 15:08:56;;;;;;;2.63;2.17;;;18.60;98.30;;;;;;6335273;28;20589;-68
2022/09/12 15:12:02;;;;;;;2.40;2.20;;;18.60;97.20;;;;;;6325454;28;20439;-67
2022/09/12 15:15:15;;;;;;;4.57;2.28;;;18.60;97.50;;;;;;6310206;28;20302;-68
2022/09/12 15:18:24;;;;;;;3.67;2.50;;;18.50;97.10;;;;;;6310196;28;20270;-68
2022/09/12 15:21:30;;;;;;;2.25;2.05;;;18.50;97.40;;;;;;6310156;28;20294;-68
2022/09/12 15:24:37;;;;;;;2.00;1.90;;;18.40;98.10;;;;;;6309738;28;20463;-69
2022/09/12 15:27:43;;;;;;;2.50;2.10;;;18.40;97.60;;;;;;6314667;28;20293;-68
2022/09/12 15:30:51;;;;;;;3.20;2.00;;;18.40;98.10;;;;;;6334399;28;20294;-68
2022/09/12 15:34:00;;;;;;;2.08;2.03;;;18.40;98.40;;;;;;6334394;28;20297;-68
2022/09/12 15:37:09;;;;;;;2.60;2.03;;;18.40;98.20;;;;;;6335377;28;20266;-67
2022/09/12 15:40:15;;;;;;;2.42;2.22;;;18.30;98.30;;;;;;6334978;28;20298;-68
2022/09/12 15:43:22;;;;;;;2.33;2.13;;;18.40;99.20;;;;;;6336346;28;20289;-68
2022/09/12 15:46:27;;;;;;;5.25;2.17;;;18.40;98.30;;;;;;6339823;28;20585;-68
2022/09/12 15:49:34;;;;;;;4.28;2.08;;;18.40;98.10;;;;;;6339442;28;20577;-68
2022/09/12 15:52:40;;;;;;;4.10;2.10;;;18.50;97.90;;;;;;6339506;28;20459;-68
2022/09/12 15:55:46;;;;;;;2.67;2.20;;;18.50;98.10;;;;;;6339292;28;20289;-67
2022/09/12 15:58:51;;;;;;;2.58;2.00;;;18.40;97.80;;;;;;6339597;28;20444;-68
2022/09/12 16:02:04;;;;;;;2.47;2.28;;;18.40;98.10;;;;;;6339998;28;20269;-67
2022/09/12 16:05:16;;;;;;;5.22;2.17;;;18.40;98.30;;;;;;6339287;28;20293;-67
2022/09/12 16:08:22;;;;;;;2.58;2.10;;;18.30;98.70;;;;;;6339331;28;20266;-68
2022/09/12 16:11:28;;;;;;;3.33;2.20;;;18.30;98.80;;;;;;6333660;28;20526;-68
2022/09/12 16:14:33;;;;;;;2.58;2.10;;;18.20;99.30;;;;;;6313511;28;20307;-68
2022/09/12 16:17:39;;;;;;;2.33;2.13;;;18.10;98.50;;;;;;6314135;28;20270;-68
2022/09/12 16:20:45;;;;;;;2.03;2.00;;;18.10;98.50;;;;;;6313776;28;20299;-68
2022/09/12 16:23:51;;;;;;;2.20;2.10;;;18.00;99.00;;;;;;6313666;28;20590;-68
2022/09/12 16:26:56;;;;;;;2.63;2.03;;;17.90;98.90;;;;;;6313864;28;20278;-67
2022/09/12 16:30:08;;;;;;;2.92;2.00;;;17.90;99.40;;;;;;6313367;28;20294;-67
2022/09/12 16:33:14;;;;;;;2.53;2.35;;;17.80;99.00;;;;;;6313484;28;20270;-68